sensor_id;sensor_type;location;lat;lon;timestamp;pressure;altitude;pressure_sealevel;temperature;humidity
57094;BME280;42970;50.996;3.706;2023-04-06T00:00:23;75224.59;;;-146.65;41.84
57094;BME280;42970;50.996;3.706;2023-04-06T00:02:48;75234.69;;;-146.65;41.98
57094;BME280;42970;50.996;3.706;2023-04-06T00:05:13;75236.72;;;-146.65;41.99
57094;BME280;42970;50.996;3.706;2023-04-06T00:07:38;75266.97;;;-146.65;42.35
57094;BME280;42970;50.996;3.706;2023-04-06T00:10:04;75222.59;;;-146.65;42.24
57094;BME280;42970;50.996;3.706;2023-04-06T00:12:30;75242.75;;;-146.65;42.18
57094;BME280;42970;50.996;3.706;2023-04-06T00:14:55;75204.44;;;-146.65;42.18
57094;BME280;42970;50.996;3.706;2023-04-06T00:17:20;75228.66;;;-146.65;42.03
57094;BME280;42970;50.996;3.706;2023-04-06T00:19:47;75204.44;;;-146.65;42.18
57094;BME280;42970;50.996;3.706;2023-04-06T00:22:12;75206.47;;;-146.65;42.20
57094;BME280;42970;50.996;3.706;2023-04-06T00:24:37;75202.44;;;-146.65;42.10
57094;BME280;42970;50.996;3.706;2023-04-06T00:27:03;75214.53;;;-146.65;42.21
57094;BME280;42970;50.996;3.706;2023-04-06T00:29:28;75202.44;;;-146.65;42.29
57094;BME280;42970;50.996;3.706;2023-04-06T00:31:53;75198.38;;;-146.65;42.26
57094;BME280;42970;50.996;3.706;2023-04-06T00:34:19;75160.06;;;-146.65;42.08
57094;BME280;42970;50.996;3.706;2023-04-06T00:36:44;75145.94;;;-146.65;42.11
57094;BME280;42970;50.996;3.706;2023-04-06T00:39:10;75125.78;;;-146.65;42.28
57094;BME280;42970;50.996;3.706;2023-04-06T00:41:35;75135.88;;;-146.65;42.42
57094;BME280;42970;50.996;3.706;2023-04-06T00:44:00;75137.88;;;-146.65;42.43
57094;BME280;42970;50.996;3.706;2023-04-06T00:46:26;75133.84;;;-146.65;42.69
57094;BME280;42970;50.996;3.706;2023-04-06T00:48:51;75133.84;;;-146.65;42.83
57094;BME280;42970;50.996;3.706;2023-04-06T00:51:16;75129.81;;;-146.65;42.76
57094;BME280;42970;50.996;3.706;2023-04-06T00:53:42;75129.81;;;-146.65;43.38
57094;BME280;42970;50.996;3.706;2023-04-06T00:56:07;75117.72;;;-146.65;44.30
57094;BME280;42970;50.996;3.706;2023-04-06T00:58:34;75145.94;;;-146.65;45.60
57094;BME280;42970;50.996;3.706;2023-04-06T01:01:03;75143.94;;;-146.65;46.69
57094;BME280;42970;50.996;3.706;2023-04-06T01:03:28;75160.06;;;-146.65;48.60
57094;BME280;42970;50.996;3.706;2023-04-06T01:05:53;75162.09;;;-146.65;48.33
57094;BME280;42970;50.996;3.706;2023-04-06T01:08:23;75158.06;;;-146.65;48.29
57094;BME280;42970;50.996;3.706;2023-04-06T01:10:48;75154.03;;;-146.65;48.35
57094;BME280;42970;50.996;3.706;2023-04-06T01:13:14;75150.00;;;-146.65;48.06
57094;BME280;42970;50.996;3.706;2023-04-06T01:15:39;75145.94;;;-146.65;47.14
57094;BME280;42970;50.996;3.706;2023-04-06T01:18:07;75133.84;;;-146.65;46.44
57094;BME280;42970;50.996;3.706;2023-04-06T01:20:33;75125.78;;;-146.65;46.22
57094;BME280;42970;50.996;3.706;2023-04-06T01:22:59;75129.81;;;-146.65;45.91
57094;BME280;42970;50.996;3.706;2023-04-06T01:25:24;75131.84;;;-146.65;45.93
57094;BME280;42970;50.996;3.706;2023-04-06T01:27:50;75131.84;;;-146.65;46.06
57094;BME280;42970;50.996;3.706;2023-04-06T01:30:15;75133.84;;;-146.65;45.46
57094;BME280;42970;50.996;3.706;2023-04-06T01:32:42;75131.84;;;-146.65;45.84
57094;BME280;42970;50.996;3.706;2023-04-06T01:35:07;75115.69;;;-146.65;45.94
57094;BME280;42970;50.996;3.706;2023-04-06T01:37:33;75119.72;;;-146.65;47.23
57094;BME280;42970;50.996;3.706;2023-04-06T01:39:58;75141.91;;;-146.65;47.96
57094;BME280;42970;50.996;3.706;2023-04-06T01:42:24;75150.00;;;-146.65;48.58
57094;BME280;42970;50.996;3.706;2023-04-06T01:44:49;75162.09;;;-146.65;49.38
57094;BME280;42970;50.996;3.706;2023-04-06T01:47:15;75152.00;;;-146.65;49.43
57094;BME280;42970;50.996;3.706;2023-04-06T01:49:40;75154.03;;;-146.65;49.36
57094;BME280;42970;50.996;3.706;2023-04-06T01:52:05;75150.00;;;-146.65;49.32
57094;BME280;42970;50.996;3.706;2023-04-06T01:54:31;75143.94;;;-146.65;49.17
57094;BME280;42970;50.996;3.706;2023-04-06T01:56:56;75131.84;;;-146.65;49.14
57094;BME280;42970;50.996;3.706;2023-04-06T01:59:21;75131.84;;;-146.65;49.57
57094;BME280;42970;50.996;3.706;2023-04-06T02:01:47;75137.88;;;-146.65;49.85
57094;BME280;42970;50.996;3.706;2023-04-06T02:04:12;75141.91;;;-146.65;50.00
57094;BME280;42970;50.996;3.706;2023-04-06T02:06:39;75152.00;;;-146.65;49.68
57094;BME280;42970;50.996;3.706;2023-04-06T02:09:04;75135.88;;;-146.65;49.43
57094;BME280;42970;50.996;3.706;2023-04-06T02:11:29;75143.94;;;-146.65;50.16
57094;BME280;42970;50.996;3.706;2023-04-06T02:13:55;75129.81;;;-146.65;50.61
57094;BME280;42970;50.996;3.706;2023-04-06T02:16:20;75141.91;;;-146.65;50.37
57094;BME280;42970;50.996;3.706;2023-04-06T02:18:46;75145.94;;;-146.65;50.11
57094;BME280;42970;50.996;3.706;2023-04-06T02:21:11;75137.88;;;-146.65;50.46
57094;BME280;42970;50.996;3.706;2023-04-06T02:23:37;75137.88;;;-146.65;50.86
57094;BME280;42970;50.996;3.706;2023-04-06T02:26:03;75141.91;;;-146.65;49.93
57094;BME280;42970;50.996;3.706;2023-04-06T02:28:28;75202.44;;;-146.65;50.45
57094;BME280;42970;50.996;3.706;2023-04-06T02:30:53;75152.00;;;-146.65;50.20
57094;BME280;42970;50.996;3.706;2023-04-06T02:33:19;75137.88;;;-146.65;50.06
57094;BME280;42970;50.996;3.706;2023-04-06T02:35:44;75129.81;;;-146.65;50.35
57094;BME280;42970;50.996;3.706;2023-04-06T02:38:10;75127.81;;;-146.65;50.56
57094;BME280;42970;50.996;3.706;2023-04-06T02:40:36;75117.72;;;-146.65;50.93
57094;BME280;42970;50.996;3.706;2023-04-06T02:43:01;75121.75;;;-146.65;51.19
57094;BME280;42970;50.996;3.706;2023-04-06T02:45:26;75105.63;;;-146.65;51.66
57094;BME280;42970;50.996;3.706;2023-04-06T02:47:52;75091.50;;;-146.65;51.68
57094;BME280;42970;50.996;3.706;2023-04-06T02:50:17;75115.69;;;-146.65;51.94
57094;BME280;42970;50.996;3.706;2023-04-06T02:52:42;75145.94;;;-146.65;52.31
57094;BME280;42970;50.996;3.706;2023-04-06T02:55:08;75158.06;;;-146.65;53.43
57094;BME280;42970;50.996;3.706;2023-04-06T02:57:33;75141.91;;;-146.65;53.16
57094;BME280;42970;50.996;3.706;2023-04-06T02:59:58;75156.03;;;-146.65;53.64
57094;BME280;42970;50.996;3.706;2023-04-06T03:02:24;75147.97;;;-146.65;53.92
57094;BME280;42970;50.996;3.706;2023-04-06T03:04:49;75135.88;;;-146.65;54.15
57094;BME280;42970;50.996;3.706;2023-04-06T03:07:14;75162.09;;;-146.65;54.47
57094;BME280;42970;50.996;3.706;2023-04-06T03:09:40;75150.00;;;-146.65;54.35
57094;BME280;42970;50.996;3.706;2023-04-06T03:12:05;75131.84;;;-146.65;54.27
57094;BME280;42970;50.996;3.706;2023-04-06T03:14:31;75190.31;;;-146.65;55.21
57094;BME280;42970;50.996;3.706;2023-04-06T03:16:56;75162.09;;;-146.65;55.47
57094;BME280;42970;50.996;3.706;2023-04-06T03:19:21;75162.09;;;-146.65;55.29
57094;BME280;42970;50.996;3.706;2023-04-06T03:21:47;75156.03;;;-146.65;55.48
57094;BME280;42970;50.996;3.706;2023-04-06T03:24:13;75162.09;;;-146.65;55.94
57094;BME280;42970;50.996;3.706;2023-04-06T03:26:39;75152.00;;;-146.65;56.73
57094;BME280;42970;50.996;3.706;2023-04-06T03:29:05;75139.91;;;-146.65;56.54
57094;BME280;42970;50.996;3.706;2023-04-06T03:31:30;75129.81;;;-146.65;56.49
57094;BME280;42970;50.996;3.706;2023-04-06T03:33:55;75117.72;;;-146.65;56.37
57094;BME280;42970;50.996;3.706;2023-04-06T03:36:21;75121.75;;;-146.65;56.22
57094;BME280;42970;50.996;3.706;2023-04-06T03:38:46;75123.78;;;-146.65;56.82
57094;BME280;42970;50.996;3.706;2023-04-06T03:41:11;75137.88;;;-146.65;57.31
57094;BME280;42970;50.996;3.706;2023-04-06T03:43:37;75147.97;;;-146.65;57.56
57094;BME280;42970;50.996;3.706;2023-04-06T03:46:02;75150.00;;;-146.65;57.56
57094;BME280;42970;50.996;3.706;2023-04-06T03:48:27;75133.84;;;-146.65;57.50
57094;BME280;42970;50.996;3.706;2023-04-06T03:50:53;75129.81;;;-146.65;57.56
57094;BME280;42970;50.996;3.706;2023-04-06T03:53:18;75107.63;;;-146.65;57.36
57094;BME280;42970;50.996;3.706;2023-04-06T03:55:43;75115.69;;;-146.65;57.51
57094;BME280;42970;50.996;3.706;2023-04-06T03:58:09;75089.47;;;-146.65;57.00
57094;BME280;42970;50.996;3.706;2023-04-06T04:00:34;75117.72;;;-146.65;58.17
57094;BME280;42970;50.996;3.706;2023-04-06T04:02:59;75145.94;;;-146.65;58.43
57094;BME280;42970;50.996;3.706;2023-04-06T04:05:25;75137.88;;;-146.65;59.00
57094;BME280;42970;50.996;3.706;2023-04-06T04:07:51;75141.91;;;-146.65;59.05
57094;BME280;42970;50.996;3.706;2023-04-06T04:10:17;75154.03;;;-146.65;59.79
57094;BME280;42970;50.996;3.706;2023-04-06T04:12:42;75143.94;;;-146.65;59.75
57094;BME280;42970;50.996;3.706;2023-04-06T04:15:08;75152.00;;;-146.65;60.14
57094;BME280;42970;50.996;3.706;2023-04-06T04:17:33;75143.94;;;-146.65;59.74
57094;BME280;42970;50.996;3.706;2023-04-06T04:19:58;75186.28;;;-146.65;61.18
57094;BME280;42970;50.996;3.706;2023-04-06T04:22:23;75156.03;;;-146.65;61.03
57094;BME280;42970;50.996;3.706;2023-04-06T04:24:49;75164.09;;;-146.65;61.24
57094;BME280;42970;50.996;3.706;2023-04-06T04:27:14;75174.19;;;-146.65;61.64
57094;BME280;42970;50.996;3.706;2023-04-06T04:29:46;75156.03;;;-146.65;61.17
57094;BME280;42970;50.996;3.706;2023-04-06T04:32:11;75174.19;;;-146.65;61.71
57094;BME280;42970;50.996;3.706;2023-04-06T04:34:36;75174.19;;;-146.65;61.82
57094;BME280;42970;50.996;3.706;2023-04-06T04:37:05;75158.06;;;-146.65;62.01
57094;BME280;42970;50.996;3.706;2023-04-06T04:39:30;75154.03;;;-146.65;62.07
57094;BME280;42970;50.996;3.706;2023-04-06T04:41:56;75158.06;;;-146.65;62.07
57094;BME280;42970;50.996;3.706;2023-04-06T04:44:21;75158.06;;;-146.65;62.38
57094;BME280;42970;50.996;3.706;2023-04-06T04:46:46;75186.28;;;-146.65;62.89
57094;BME280;42970;50.996;3.706;2023-04-06T04:49:12;75150.00;;;-146.65;62.55
57094;BME280;42970;50.996;3.706;2023-04-06T04:51:37;75129.81;;;-146.65;62.03
57094;BME280;42970;50.996;3.706;2023-04-06T04:54:02;75133.84;;;-146.65;61.91
57094;BME280;42970;50.996;3.706;2023-04-06T04:56:28;75129.81;;;-146.65;61.73
57094;BME280;42970;50.996;3.706;2023-04-06T04:58:53;75123.78;;;-146.65;61.88
57094;BME280;42970;50.996;3.706;2023-04-06T05:01:19;75137.88;;;-146.65;62.61
57094;BME280;42970;50.996;3.706;2023-04-06T05:03:44;75150.00;;;-146.65;64.09
57094;BME280;42970;50.996;3.706;2023-04-06T05:06:10;75154.03;;;-146.65;65.42
57094;BME280;42970;50.996;3.706;2023-04-06T05:08:35;75192.34;;;-146.65;65.60
57094;BME280;42970;50.996;3.706;2023-04-06T05:11:01;75156.03;;;-146.65;66.16
57094;BME280;42970;50.996;3.706;2023-04-06T05:13:26;75141.91;;;-146.65;66.58
57094;BME280;42970;50.996;3.706;2023-04-06T05:15:52;75190.31;;;-146.65;68.19
57094;BME280;42970;50.996;3.706;2023-04-06T05:18:17;75174.19;;;-146.65;67.87
57094;BME280;42970;50.996;3.706;2023-04-06T05:20:43;75190.31;;;-146.65;69.63
57094;BME280;42970;50.996;3.706;2023-04-06T05:23:08;75222.59;;;-146.65;70.25
57094;BME280;42970;50.996;3.706;2023-04-06T05:25:33;75182.25;;;-146.65;70.34
57094;BME280;42970;50.996;3.706;2023-04-06T05:27:59;75180.25;;;-146.65;70.32
57094;BME280;42970;50.996;3.706;2023-04-06T05:30:24;75180.25;;;-146.65;70.16
57094;BME280;42970;50.996;3.706;2023-04-06T05:32:50;75166.13;;;-146.65;70.36
57094;BME280;42970;50.996;3.706;2023-04-06T05:35:15;75200.41;;;-146.65;71.14
57094;BME280;42970;50.996;3.706;2023-04-06T05:37:42;75190.31;;;-146.65;70.98
57094;BME280;42970;50.996;3.706;2023-04-06T05:40:07;75202.44;;;-146.65;71.43
57094;BME280;42970;50.996;3.706;2023-04-06T05:42:39;75222.59;;;-146.65;72.37
57094;BME280;42970;50.996;3.706;2023-04-06T05:45:06;75216.53;;;-146.65;73.87
57094;BME280;42970;50.996;3.706;2023-04-06T05:47:31;75200.41;;;-146.65;73.59
57094;BME280;42970;50.996;3.706;2023-04-06T05:49:56;75264.94;;;-146.65;74.74
57094;BME280;42970;50.996;3.706;2023-04-06T05:52:22;75268.97;;;-146.65;75.88
57094;BME280;42970;50.996;3.706;2023-04-06T05:54:47;75256.88;;;-146.65;75.78
57094;BME280;42970;50.996;3.706;2023-04-06T05:57:12;75250.84;;;-146.65;75.86
57094;BME280;42970;50.996;3.706;2023-04-06T05:59:38;75266.97;;;-146.65;76.36
57094;BME280;42970;50.996;3.706;2023-04-06T06:02:03;75273.03;;;-146.65;76.37
57094;BME280;42970;50.996;3.706;2023-04-06T06:04:30;75273.03;;;-146.65;77.07
57094;BME280;42970;50.996;3.706;2023-04-06T06:06:55;75287.13;;;-146.65;77.76
57094;BME280;42970;50.996;3.706;2023-04-06T06:09:21;75311.34;;;-146.65;78.69
57094;BME280;42970;50.996;3.706;2023-04-06T06:11:46;75301.25;;;-146.65;78.25
57094;BME280;42970;50.996;3.706;2023-04-06T06:14:11;75311.34;;;-146.65;78.78
57094;BME280;42970;50.996;3.706;2023-04-06T06:16:37;75271.00;;;-146.65;77.61
57094;BME280;42970;50.996;3.706;2023-04-06T06:19:02;75285.13;;;-146.65;77.41
57094;BME280;42970;50.996;3.706;2023-04-06T06:21:27;75281.09;;;-146.65;77.60
57094;BME280;42970;50.996;3.706;2023-04-06T06:23:54;75311.34;;;-146.65;78.53
57094;BME280;42970;50.996;3.706;2023-04-06T06:26:19;75291.16;;;-146.65;78.56
57094;BME280;42970;50.996;3.706;2023-04-06T06:28:45;75244.78;;;-146.65;77.96
57094;BME280;42970;50.996;3.706;2023-04-06T06:31:10;75295.19;;;-146.65;79.37
57094;BME280;42970;50.996;3.706;2023-04-06T06:33:35;75279.06;;;-146.65;78.87
57094;BME280;42970;50.996;3.706;2023-04-06T06:36:01;75254.88;;;-146.65;79.07
57094;BME280;42970;50.996;3.706;2023-04-06T06:38:26;75279.06;;;-146.65;79.11
57094;BME280;42970;50.996;3.706;2023-04-06T06:40:51;75273.03;;;-146.65;79.35
57094;BME280;42970;50.996;3.706;2023-04-06T06:43:17;75297.22;;;-146.65;79.49
57094;BME280;42970;50.996;3.706;2023-04-06T06:45:42;75250.84;;;-146.65;79.41
57094;BME280;42970;50.996;3.706;2023-04-06T06:48:07;75254.88;;;-146.65;78.36
57094;BME280;42970;50.996;3.706;2023-04-06T06:50:33;75222.59;;;-146.65;78.70
57094;BME280;42970;50.996;3.706;2023-04-06T06:52:58;75222.59;;;-146.65;77.69
57094;BME280;42970;50.996;3.706;2023-04-06T06:55:23;75214.53;;;-146.65;78.14
57094;BME280;42970;50.996;3.706;2023-04-06T06:57:50;75230.66;;;-146.65;79.11
57094;BME280;42970;50.996;3.706;2023-04-06T07:00:15;75200.41;;;-146.65;79.83
57094;BME280;42970;50.996;3.706;2023-04-06T07:02:41;75222.59;;;-146.65;78.71
57094;BME280;42970;50.996;3.706;2023-04-06T07:05:06;75210.50;;;-146.65;79.86
57094;BME280;42970;50.996;3.706;2023-04-06T07:07:32;75210.50;;;-146.65;81.32
57094;BME280;42970;50.996;3.706;2023-04-06T07:09:57;75210.50;;;-146.65;81.28
57094;BME280;42970;50.996;3.706;2023-04-06T07:12:22;75164.09;;;-146.65;79.76
57094;BME280;42970;50.996;3.706;2023-04-06T07:14:48;75178.22;;;-146.65;80.17
57094;BME280;42970;50.996;3.706;2023-04-06T07:17:13;75214.53;;;-146.65;80.48
57094;BME280;42970;50.996;3.706;2023-04-06T07:19:39;75216.53;;;-146.65;82.01
57094;BME280;42970;50.996;3.706;2023-04-06T07:22:04;75222.59;;;-146.65;81.69
57094;BME280;42970;50.996;3.706;2023-04-06T07:24:30;75226.63;;;-146.65;81.68
57094;BME280;42970;50.996;3.706;2023-04-06T07:26:55;75262.94;;;-146.65;83.06
57094;BME280;42970;50.996;3.706;2023-04-06T07:29:21;75224.59;;;-146.65;82.79
57094;BME280;42970;50.996;3.706;2023-04-06T07:31:48;75226.63;;;-146.65;83.09
57094;BME280;42970;50.996;3.706;2023-04-06T07:34:14;75210.50;;;-146.65;83.21
57094;BME280;42970;50.996;3.706;2023-04-06T07:36:39;75273.03;;;-146.65;83.96
57094;BME280;42970;50.996;3.706;2023-04-06T07:39:04;75230.66;;;-146.65;84.27
57094;BME280;42970;50.996;3.706;2023-04-06T07:41:30;75212.50;;;-146.65;83.88
57094;BME280;42970;50.996;3.706;2023-04-06T07:43:56;75222.59;;;-146.65;84.64
57094;BME280;42970;50.996;3.706;2023-04-06T07:46:21;75180.25;;;-146.65;82.80
57094;BME280;42970;50.996;3.706;2023-04-06T07:48:46;75230.66;;;-146.65;83.13
57094;BME280;42970;50.996;3.706;2023-04-06T07:51:12;75238.72;;;-146.65;84.53
57094;BME280;42970;50.996;3.706;2023-04-06T07:53:39;75174.19;;;-146.65;83.23
57094;BME280;42970;50.996;3.706;2023-04-06T07:56:05;75208.47;;;-146.65;84.38
57094;BME280;42970;50.996;3.706;2023-04-06T07:58:30;75214.53;;;-146.65;83.96
57094;BME280;42970;50.996;3.706;2023-04-06T08:00:56;75186.28;;;-146.65;83.22
57094;BME280;42970;50.996;3.706;2023-04-06T08:03:22;75154.03;;;-146.65;83.23
57094;BME280;42970;50.996;3.706;2023-04-06T08:05:50;75180.25;;;-146.65;82.94
57094;BME280;42970;50.996;3.706;2023-04-06T08:08:16;75160.06;;;-146.65;83.25
57094;BME280;42970;50.996;3.706;2023-04-06T08:10:41;75174.19;;;-146.65;83.06
57094;BME280;42970;50.996;3.706;2023-04-06T08:13:06;75160.06;;;-146.65;83.71
57094;BME280;42970;50.996;3.706;2023-04-06T08:15:33;75162.09;;;-146.65;83.83
57094;BME280;42970;50.996;3.706;2023-04-06T08:17:58;75182.25;;;-146.65;82.85
57094;BME280;42970;50.996;3.706;2023-04-06T08:20:23;75162.09;;;-146.65;84.59
57094;BME280;42970;50.996;3.706;2023-04-06T08:22:49;75158.06;;;-146.65;84.29
57094;BME280;42970;50.996;3.706;2023-04-06T08:25:15;75121.75;;;-146.65;82.83
57094;BME280;42970;50.996;3.706;2023-04-06T08:27:40;75216.53;;;-146.65;84.57
57094;BME280;42970;50.996;3.706;2023-04-06T08:30:06;75210.50;;;-146.65;85.36
57094;BME280;42970;50.996;3.706;2023-04-06T08:32:31;75202.44;;;-146.65;85.80
57094;BME280;42970;50.996;3.706;2023-04-06T08:34:56;75206.47;;;-146.65;85.81
57094;BME280;42970;50.996;3.706;2023-04-06T08:37:22;75160.06;;;-146.65;84.47
57094;BME280;42970;50.996;3.706;2023-04-06T08:39:47;75129.81;;;-146.65;84.30
57094;BME280;42970;50.996;3.706;2023-04-06T08:42:22;75170.16;;;-146.65;84.87
57094;BME280;42970;50.996;3.706;2023-04-06T08:44:50;75208.47;;;-146.65;85.75
57094;BME280;42970;50.996;3.706;2023-04-06T08:47:18;75152.00;;;-146.65;84.86
57094;BME280;42970;50.996;3.706;2023-04-06T08:49:44;75133.84;;;-146.65;84.70
57094;BME280;42970;50.996;3.706;2023-04-06T08:52:10;75089.47;;;-146.65;83.80
57094;BME280;42970;50.996;3.706;2023-04-06T08:54:36;75154.03;;;-146.65;84.62
57094;BME280;42970;50.996;3.706;2023-04-06T08:57:02;75133.84;;;-146.65;84.59
57094;BME280;42970;50.996;3.706;2023-04-06T08:59:28;75091.50;;;-146.65;83.82
57094;BME280;42970;50.996;3.706;2023-04-06T09:01:53;75105.63;;;-146.65;84.16
57094;BME280;42970;50.996;3.706;2023-04-06T09:04:19;75127.81;;;-146.65;85.30
57094;BME280;42970;50.996;3.706;2023-04-06T09:06:44;75133.84;;;-146.65;85.40
57094;BME280;42970;50.996;3.706;2023-04-06T09:09:10;75079.41;;;-146.65;84.40
57094;BME280;42970;50.996;3.706;2023-04-06T09:11:43;75103.59;;;-146.65;85.43
57094;BME280;42970;50.996;3.706;2023-04-06T09:14:09;75119.72;;;-146.65;85.94
57094;BME280;42970;50.996;3.706;2023-04-06T09:16:44;75158.06;;;-146.65;86.29
57094;BME280;42970;50.996;3.706;2023-04-06T09:19:13;75156.03;;;-146.65;85.98
57094;BME280;42970;50.996;3.706;2023-04-06T09:21:38;75131.84;;;-146.65;85.77
57094;BME280;42970;50.996;3.706;2023-04-06T09:24:06;75154.03;;;-146.65;86.53
57094;BME280;42970;50.996;3.706;2023-04-06T09:26:32;75121.75;;;-146.65;85.95
57094;BME280;42970;50.996;3.706;2023-04-06T09:29:08;75115.69;;;-146.65;85.25
57094;BME280;42970;50.996;3.706;2023-04-06T09:31:34;75105.63;;;-146.65;85.63
57094;BME280;42970;50.996;3.706;2023-04-06T09:33:59;75113.69;;;-146.65;85.38
57094;BME280;42970;50.996;3.706;2023-04-06T09:36:34;75115.69;;;-146.65;85.25
57094;BME280;42970;50.996;3.706;2023-04-06T09:39:03;75061.25;;;-146.65;83.95
57094;BME280;42970;50.996;3.706;2023-04-06T09:41:30;75109.66;;;-146.65;85.75
57094;BME280;42970;50.996;3.706;2023-04-06T09:44:05;75055.19;;;-146.65;84.66
57094;BME280;42970;50.996;3.706;2023-04-06T09:46:34;75107.63;;;-146.65;86.84
57094;BME280;42970;50.996;3.706;2023-04-06T09:49:01;75063.25;;;-146.65;86.18
57094;BME280;42970;50.996;3.706;2023-04-06T09:51:26;75033.00;;;-146.65;85.48
57094;BME280;42970;50.996;3.706;2023-04-06T09:53:55;75091.50;;;-146.65;86.73
57094;BME280;42970;50.996;3.706;2023-04-06T09:56:26;75081.41;;;-146.65;86.81
57094;BME280;42970;50.996;3.706;2023-04-06T09:58:53;75087.47;;;-146.65;88.33
57094;BME280;42970;50.996;3.706;2023-04-06T10:01:20;75071.34;;;-146.65;87.87
57094;BME280;42970;50.996;3.706;2023-04-06T10:06:17;74984.59;;;-146.65;86.19
57094;BME280;42970;50.996;3.706;2023-04-06T10:08:43;75049.16;;;-146.65;87.77
57094;BME280;42970;50.996;3.706;2023-04-06T10:11:10;75051.16;;;-146.65;88.88
57094;BME280;42970;50.996;3.706;2023-04-06T10:13:36;75061.25;;;-146.65;88.30
57094;BME280;42970;50.996;3.706;2023-04-06T10:16:01;75091.50;;;-146.65;88.62
57094;BME280;42970;50.996;3.706;2023-04-06T10:18:27;75089.47;;;-146.65;89.84
57094;BME280;42970;50.996;3.706;2023-04-06T10:23:26;75033.00;;;-146.65;89.33
57094;BME280;42970;50.996;3.706;2023-04-06T10:25:58;75039.06;;;-146.65;89.33
57094;BME280;42970;50.996;3.706;2023-04-06T10:28:23;75055.19;;;-146.65;90.27
57094;BME280;42970;50.996;3.706;2023-04-06T10:30:49;75089.47;;;-146.65;89.79
57094;BME280;42970;50.996;3.706;2023-04-06T10:33:21;75028.97;;;-146.65;89.83
57094;BME280;42970;50.996;3.706;2023-04-06T10:35:46;75073.34;;;-146.65;90.99
57094;BME280;42970;50.996;3.706;2023-04-06T10:38:12;75041.06;;;-146.65;90.45
57094;BME280;42970;50.996;3.706;2023-04-06T10:40:39;75041.06;;;-146.65;89.48
57094;BME280;42970;50.996;3.706;2023-04-06T10:43:09;75035.03;;;-146.65;89.83
57094;BME280;42970;50.996;3.706;2023-04-06T10:45:34;74984.59;;;-146.65;89.15
57094;BME280;42970;50.996;3.706;2023-04-06T10:48:00;75028.97;;;-146.65;89.86
57094;BME280;42970;50.996;3.706;2023-04-06T10:50:26;75004.78;;;-146.65;90.68
57094;BME280;42970;50.996;3.706;2023-04-06T10:53:01;75051.16;;;-146.65;90.82
57094;BME280;42970;50.996;3.706;2023-04-06T10:55:27;74956.38;;;-146.65;88.86
57094;BME280;42970;50.996;3.706;2023-04-06T10:57:53;74932.19;;;-146.65;88.99
57094;BME280;42970;50.996;3.706;2023-04-06T11:00:18;74994.69;;;-146.65;89.48
57094;BME280;42970;50.996;3.706;2023-04-06T11:02:44;74978.56;;;-146.65;89.49
57094;BME280;42970;50.996;3.706;2023-04-06T11:05:10;75012.84;;;-146.65;91.34
57094;BME280;42970;50.996;3.706;2023-04-06T11:07:36;75022.94;;;-146.65;90.43
57094;BME280;42970;50.996;3.706;2023-04-06T11:10:01;75006.78;;;-146.65;90.51
57094;BME280;42970;50.996;3.706;2023-04-06T11:12:27;74994.69;;;-146.65;91.20
57094;BME280;42970;50.996;3.706;2023-04-06T11:14:57;74970.50;;;-146.65;91.20
57094;BME280;42970;50.996;3.706;2023-04-06T11:17:35;74954.34;;;-146.65;90.94
57094;BME280;42970;50.996;3.706;2023-04-06T11:20:01;74944.28;;;-146.65;90.27
57094;BME280;42970;50.996;3.706;2023-04-06T11:22:27;75012.84;;;-146.65;91.34
57094;BME280;42970;50.996;3.706;2023-04-06T11:24:53;75020.91;;;-146.65;92.17
57094;BME280;42970;50.996;3.706;2023-04-06T11:27:29;74946.28;;;-146.65;91.32
57094;BME280;42970;50.996;3.706;2023-04-06T11:29:56;74988.66;;;-146.65;91.24
57094;BME280;42970;50.996;3.706;2023-04-06T11:32:21;74986.63;;;-146.65;91.18
57094;BME280;42970;50.996;3.706;2023-04-06T11:34:48;74988.66;;;-146.65;91.94
57094;BME280;42970;50.996;3.706;2023-04-06T11:37:13;75016.88;;;-146.65;91.15
57094;BME280;42970;50.996;3.706;2023-04-06T11:39:42;74996.72;;;-146.65;92.42
57094;BME280;42970;50.996;3.706;2023-04-06T11:42:08;74976.53;;;-146.65;91.61
57094;BME280;42970;50.996;3.706;2023-04-06T11:44:34;75000.75;;;-146.65;91.10
57094;BME280;42970;50.996;3.706;2023-04-06T11:47:01;74968.47;;;-146.65;91.17
57094;BME280;42970;50.996;3.706;2023-04-06T11:49:27;74920.06;;;-146.65;89.42
57094;BME280;42970;50.996;3.706;2023-04-06T11:51:53;74905.97;;;-146.65;89.94
57094;BME280;42970;50.996;3.706;2023-04-06T11:54:28;74897.88;;;-146.65;89.41
57094;BME280;42970;50.996;3.706;2023-04-06T11:56:54;74901.91;;;-146.65;89.51
57094;BME280;42970;50.996;3.706;2023-04-06T11:59:20;74883.78;;;-146.65;88.37
57094;BME280;42970;50.996;3.706;2023-04-06T12:01:46;74914.03;;;-146.65;89.40
57094;BME280;42970;50.996;3.706;2023-04-06T12:04:11;74944.28;;;-146.65;89.82
57094;BME280;42970;50.996;3.706;2023-04-06T12:06:37;74903.94;;;-146.65;90.04
57094;BME280;42970;50.996;3.706;2023-04-06T12:09:02;74885.78;;;-146.65;90.26
57094;BME280;42970;50.996;3.706;2023-04-06T12:11:27;74940.25;;;-146.65;91.44
57094;BME280;42970;50.996;3.706;2023-04-06T12:13:53;74914.03;;;-146.65;90.28
57094;BME280;42970;50.996;3.706;2023-04-06T12:16:18;74875.72;;;-146.65;89.03
57094;BME280;42970;50.996;3.706;2023-04-06T12:18:44;74912.00;;;-146.65;89.73
57094;BME280;42970;50.996;3.706;2023-04-06T12:21:09;74893.84;;;-146.65;88.90
57094;BME280;42970;50.996;3.706;2023-04-06T12:23:35;74932.19;;;-146.65;91.72
57094;BME280;42970;50.996;3.706;2023-04-06T12:26:00;74920.06;;;-146.65;91.26
57094;BME280;42970;50.996;3.706;2023-04-06T12:28:26;74926.13;;;-146.65;91.12
57094;BME280;42970;50.996;3.706;2023-04-06T12:30:52;74887.81;;;-146.65;90.09
57094;BME280;42970;50.996;3.706;2023-04-06T12:33:17;74883.78;;;-146.65;89.78
57094;BME280;42970;50.996;3.706;2023-04-06T12:35:42;74879.75;;;-146.65;89.40
57094;BME280;42970;50.996;3.706;2023-04-06T12:38:08;74877.72;;;-146.65;89.63